Time;durP1;ratioP1;P1;durP2;ratioP2;P2;SDS_P1;SDS_P2;PMS_P1;PMS_P2;Temp;Humidity;BMP_temperature;BMP_pressure;BME280_temperature;BME280_humidity;BME280_pressure;Samples;Min_cycle;Max_cycle;Signal;HPM_P1;HPM_P2
2021/07/30 00:00:24;;;;;;;11.25;5.53;;;16.70;99.90;;;;;;5040246;28;20048;-89
2021/07/30 00:02:50;;;;;;;9.88;5.10;;;16.60;99.90;;;;;;5040482;28;20045;-88
2021/07/30 00:05:17;;;;;;;8.45;4.90;;;16.80;99.90;;;;;;5039802;28;20417;-90
2021/07/30 00:07:45;;;;;;;8.10;5.30;;;16.80;99.90;;;;;;5039672;28;20045;-88
2021/07/30 00:10:12;;;;;;;8.35;4.70;;;17.10;99.90;;;;;;5039278;28;20049;-88
2021/07/30 00:12:40;;;;;;;10.02;4.90;;;16.90;99.90;;;;;;5040348;28;20044;-88
2021/07/30 00:15:07;;;;;;;9.60;5.10;;;17.00;99.90;;;;;;5039488;28;20044;-88
2021/07/30 00:17:35;;;;;;;10.68;5.13;;;16.70;99.90;;;;;;5038444;28;20428;-88
2021/07/30 00:20:03;;;;;;;9.60;5.05;;;16.80;99.90;;;;;;5038782;28;20052;-89
2021/07/30 00:22:29;;;;;;;11.25;5.25;;;16.90;99.90;;;;;;5039116;28;20148;-88
2021/07/30 00:24:56;;;;;;;10.85;5.22;;;16.80;99.90;;;;;;5045628;28;20140;-89
2021/07/30 00:27:23;;;;;;;10.60;4.93;;;16.70;99.90;;;;;;5043302;28;20048;-88
2021/07/30 00:29:51;;;;;;;10.18;5.70;;;16.70;99.90;;;;;;5041234;28;20395;-88
2021/07/30 00:32:18;;;;;;;9.63;5.35;;;16.60;99.90;;;;;;5039833;28;20980;-88
2021/07/30 00:34:45;;;;;;;9.07;4.88;;;16.70;99.90;;;;;;5040331;28;20041;-88
2021/07/30 00:37:12;;;;;;;9.18;5.22;;;16.80;99.90;;;;;;5039086;28;20041;-89
2021/07/30 00:39:39;;;;;;;10.52;5.05;;;16.60;99.90;;;;;;5039777;28;20071;-88
2021/07/30 00:42:06;;;;;;;10.98;5.05;;;16.60;99.90;;;;;;5039386;28;20389;-89
2021/07/30 00:44:32;;;;;;;9.55;4.80;;;16.40;99.90;;;;;;5039200;28;20055;-89
2021/07/30 00:47:01;;;;;;;11.18;4.90;;;16.30;99.90;;;;;;5039665;28;20501;-88
2021/07/30 00:49:28;;;;;;;11.20;4.90;;;16.30;99.90;;;;;;5038488;28;20348;-88
2021/07/30 00:51:55;;;;;;;11.65;5.40;;;16.20;99.90;;;;;;5039052;28;20041;-89
2021/07/30 00:54:24;;;;;;;8.93;4.75;;;16.10;99.90;;;;;;5038501;28;20604;-89
2021/07/30 00:56:52;;;;;;;15.02;5.05;;;16.00;99.90;;;;;;5039524;28;20052;-89
2021/07/30 00:59:19;;;;;;;9.52;5.13;;;16.00;99.90;;;;;;5038311;28;20072;-88
2021/07/30 01:01:46;;;;;;;18.63;5.60;;;16.00;99.90;;;;;;5038735;28;20063;-88
2021/07/30 01:04:14;;;;;;;9.20;4.70;;;16.10;99.90;;;;;;5038298;28;20410;-89
2021/07/30 01:06:41;;;;;;;11.60;5.70;;;16.10;99.90;;;;;;5039262;28;20045;-89
2021/07/30 01:09:08;;;;;;;10.65;5.88;;;16.20;99.90;;;;;;5039194;28;20055;-90
2021/07/30 01:11:35;;;;;;;13.07;5.13;;;16.10;99.90;;;;;;5038341;28;20099;-88
2021/07/30 01:14:02;;;;;;;10.88;5.28;;;16.10;99.90;;;;;;5038963;28;20051;-90
2021/07/30 01:16:29;;;;;;;14.38;5.60;;;16.10;99.90;;;;;;5039106;28;20120;-88
2021/07/30 01:18:56;;;;;;;8.43;5.00;;;16.10;99.90;;;;;;5038190;28;20123;-88
2021/07/30 01:21:30;;;;;;;11.35;5.00;;;16.20;99.90;;;;;;5041216;28;20056;-89
2021/07/30 01:23:59;;;;;;;9.80;4.72;;;16.00;99.90;;;;;;5041247;28;20060;-89
2021/07/30 01:26:26;;;;;;;12.85;4.80;;;15.90;99.90;;;;;;5040879;28;20495;-88
2021/07/30 01:28:52;;;;;;;8.95;4.95;;;15.90;99.90;;;;;;5041195;28;20044;-89
2021/07/30 01:31:20;;;;;;;8.50;5.28;;;15.90;99.90;;;;;;5038510;28;20041;-89
2021/07/30 01:33:46;;;;;;;9.80;5.45;;;15.80;99.90;;;;;;5038242;28;20474;-90
2021/07/30 01:36:13;;;;;;;8.20;4.97;;;15.80;99.90;;;;;;5038690;28;20581;-88
2021/07/30 01:38:40;;;;;;;9.75;5.25;;;15.80;99.90;;;;;;5038036;28;20048;-89
2021/07/30 01:41:11;;;;;;;10.65;5.80;;;15.90;99.90;;;;;;5038902;28;20394;-89
2021/07/30 01:43:39;;;;;;;11.25;5.88;;;15.80;99.90;;;;;;5038628;28;20102;-89
2021/07/30 01:46:06;;;;;;;9.77;5.88;;;15.90;99.90;;;;;;5040713;28;20063;-89
2021/07/30 01:48:33;;;;;;;12.27;6.22;;;15.80;99.90;;;;;;5052149;28;20044;-87
2021/07/30 01:51:01;;;;;;;11.05;6.00;;;15.90;99.90;;;;;;5050255;28;20106;-87
2021/07/30 01:53:28;;;;;;;12.35;6.20;;;15.80;99.90;;;;;;5049861;28;20486;-87
2021/07/30 01:55:55;;;;;;;14.70;6.35;;;16.00;99.90;;;;;;5048794;28;20053;-87
2021/07/30 01:58:24;;;;;;;11.82;5.53;;;16.20;99.90;;;;;;5049261;28;20053;-88
2021/07/30 02:00:53;;;;;;;12.57;5.97;;;16.10;99.90;;;;;;5048596;28;20055;-87
2021/07/30 02:03:19;;;;;;;10.10;5.30;;;16.10;99.90;;;;;;5048630;28;20048;-87
2021/07/30 02:05:46;;;;;;;8.50;5.53;;;16.10;99.90;;;;;;5049113;28;20051;-87
2021/07/30 02:08:13;;;;;;;10.18;5.78;;;16.20;99.90;;;;;;5048550;28;20469;-87
2021/07/30 02:10:40;;;;;;;13.30;6.10;;;16.00;99.90;;;;;;5050942;28;20041;-87
2021/07/30 02:15:53;;;;;;;9.95;5.65;;;15.80;99.90;;;;;;5050925;28;20055;-86
2021/07/30 02:18:20;;;;;;;10.95;5.90;;;15.80;99.90;;;;;;5053517;28;20051;-87
2021/07/30 02:20:47;;;;;;;9.07;5.50;;;16.00;99.90;;;;;;5054165;28;20049;-87
2021/07/30 02:23:13;;;;;;;10.07;6.30;;;15.80;99.90;;;;;;5053881;28;20041;-87
2021/07/30 02:25:40;;;;;;;9.90;5.88;;;15.80;99.90;;;;;;5054036;28;20677;-86
2021/07/30 02:28:07;;;;;;;13.27;6.30;;;15.80;99.90;;;;;;5053351;28;20041;-87
2021/07/30 02:30:34;;;;;;;11.02;6.03;;;15.90;99.90;;;;;;5053279;28;20132;-86
2021/07/30 02:33:02;;;;;;;9.15;6.00;;;16.10;99.90;;;;;;5053012;28;20049;-86
2021/07/30 02:35:29;;;;;;;11.00;6.65;;;16.00;99.90;;;;;;5054222;28;20080;-86
2021/07/30 02:37:56;;;;;;;11.77;5.93;;;15.70;99.90;;;;;;5054213;28;20045;-86
2021/07/30 02:40:23;;;;;;;11.77;5.63;;;15.70;99.90;;;;;;5054906;28;20052;-87
2021/07/30 02:42:49;;;;;;;11.45;5.93;;;15.70;99.90;;;;;;5053433;28;20053;-87
2021/07/30 02:45:16;;;;;;;12.05;6.07;;;15.80;99.90;;;;;;5053153;28;20128;-86
2021/07/30 02:47:43;;;;;;;10.25;5.72;;;15.70;99.90;;;;;;5053252;28;20108;-86
2021/07/30 02:50:11;;;;;;;18.42;7.03;;;15.70;99.90;;;;;;5053208;28;20049;-86
2021/07/30 02:52:38;;;;;;;10.00;6.28;;;15.70;99.90;;;;;;5052644;28;20192;-86
2021/07/30 02:55:06;;;;;;;12.38;5.80;;;15.70;99.90;;;;;;5055170;28;20149;-86
2021/07/30 02:57:33;;;;;;;12.13;6.28;;;15.70;99.90;;;;;;5054832;28;20481;-86
2021/07/30 03:00:00;;;;;;;10.90;6.05;;;15.70;99.90;;;;;;5052772;28;20055;-86
2021/07/30 03:02:27;;;;;;;11.48;6.70;;;15.90;99.90;;;;;;5052456;28;20136;-87
2021/07/30 03:04:54;;;;;;;14.10;6.80;;;15.70;99.90;;;;;;5053483;28;20678;-87
2021/07/30 03:07:22;;;;;;;11.18;6.40;;;15.70;99.90;;;;;;5054849;28;20421;-87
2021/07/30 03:09:49;;;;;;;10.48;6.07;;;15.60;99.90;;;;;;5053069;28;20063;-87
2021/07/30 03:12:15;;;;;;;12.00;6.63;;;15.70;99.90;;;;;;5052478;28;20435;-87
2021/07/30 03:14:42;;;;;;;11.55;6.32;;;15.80;99.90;;;;;;5052103;28;20056;-87
2021/07/30 03:17:09;;;;;;;12.00;6.43;;;15.60;99.90;;;;;;5051956;28;20048;-87
2021/07/30 03:19:36;;;;;;;14.55;7.00;;;15.60;99.90;;;;;;5052049;28;20053;-87
2021/07/30 03:22:03;;;;;;;11.80;7.05;;;15.50;99.90;;;;;;5055572;28;20634;-88
2021/07/30 03:24:31;;;;;;;15.02;7.38;;;15.40;99.90;;;;;;5055128;28;20049;-87
2021/07/30 03:26:59;;;;;;;10.43;6.85;;;15.50;99.90;;;;;;5054005;28;20059;-88
2021/07/30 03:29:25;;;;;;;10.80;7.32;;;15.30;99.90;;;;;;5051001;28;20421;-87
2021/07/30 03:31:52;;;;;;;11.00;6.57;;;15.30;99.90;;;;;;5051536;28;20060;-87
2021/07/30 03:34:19;;;;;;;12.32;6.65;;;15.30;99.90;;;;;;5051097;28;20051;-87
2021/07/30 03:36:46;;;;;;;13.60;7.00;;;15.20;99.90;;;;;;5051036;28;20045;-87
2021/07/30 03:39:13;;;;;;;14.10;6.75;;;15.20;99.90;;;;;;5051782;28;20059;-87
2021/07/30 03:41:41;;;;;;;10.48;7.40;;;15.20;99.90;;;;;;5053303;28;20051;-87
2021/07/30 03:44:08;;;;;;;11.55;6.88;;;15.20;99.90;;;;;;5052568;28;20045;-86
2021/07/30 03:46:35;;;;;;;12.05;6.90;;;15.10;99.90;;;;;;5051648;28;20049;-86
2021/07/30 03:49:02;;;;;;;13.63;7.63;;;15.10;99.90;;;;;;5052219;28;20416;-87
2021/07/30 03:51:29;;;;;;;13.57;7.05;;;15.10;99.90;;;;;;5052363;28;20051;-86
2021/07/30 03:53:56;;;;;;;12.18;6.80;;;15.10;99.90;;;;;;5052679;28;20060;-87
2021/07/30 03:56:23;;;;;;;13.13;7.85;;;15.30;99.90;;;;;;5051551;28;20060;-86
2021/07/30 03:58:51;;;;;;;12.05;6.68;;;15.10;99.90;;;;;;5051990;28;20048;-86
2021/07/30 04:01:18;;;;;;;11.52;6.82;;;15.10;99.90;;;;;;5051315;28;20563;-86
2021/07/30 04:03:45;;;;;;;12.10;6.70;;;15.20;99.90;;;;;;5051272;28;20127;-86
2021/07/30 04:06:12;;;;;;;14.50;7.30;;;15.30;99.90;;;;;;5051579;28;20127;-86
2021/07/30 04:08:39;;;;;;;14.32;7.15;;;15.20;99.90;;;;;;5051305;28;20437;-86
2021/07/30 04:11:06;;;;;;;17.60;7.75;;;15.30;99.90;;;;;;5051973;28;20052;-86
2021/07/30 04:13:33;;;;;;;15.75;7.63;;;15.10;99.90;;;;;;5052019;28;20051;-87
2021/07/30 04:16:06;;;;;;;11.93;7.10;;;15.10;99.90;;;;;;5051558;28;20049;-87
2021/07/30 04:18:33;;;;;;;12.55;7.35;;;15.00;99.90;;;;;;5051517;28;20051;-86
2021/07/30 04:21:00;;;;;;;14.73;7.72;;;15.20;99.90;;;;;;5052002;28;20409;-86
2021/07/30 04:23:27;;;;;;;14.10;6.95;;;15.20;99.90;;;;;;5051316;28;20076;-87
2021/07/30 04:25:54;;;;;;;16.45;8.27;;;15.20;99.90;;;;;;5052066;28;20040;-87
2021/07/30 04:28:20;;;;;;;16.92;7.20;;;15.30;99.90;;;;;;5051454;28;20044;-85
2021/07/30 04:30:47;;;;;;;17.95;7.90;;;15.30;99.90;;;;;;5051764;28;20104;-86
2021/07/30 04:33:15;;;;;;;12.18;7.32;;;15.20;99.90;;;;;;5051878;28;20051;-86
2021/07/30 04:35:42;;;;;;;15.02;7.03;;;15.30;99.90;;;;;;5053118;28;20055;-86
2021/07/30 04:38:09;;;;;;;12.90;6.65;;;15.40;99.90;;;;;;5054623;28;20488;-87
2021/07/30 04:40:38;;;;;;;12.88;7.22;;;15.30;99.90;;;;;;5052366;28;20045;-87
2021/07/30 04:43:05;;;;;;;14.60;8.27;;;15.30;99.90;;;;;;5050404;28;20053;-87
2021/07/30 04:45:34;;;;;;;10.93;7.00;;;15.30;99.90;;;;;;5049811;28;20045;-87
2021/07/30 04:48:01;;;;;;;17.30;6.28;;;15.30;99.90;;;;;;5049882;28;20041;-86
2021/07/30 04:50:29;;;;;;;14.05;6.80;;;15.30;99.90;;;;;;5048932;28;20513;-87
2021/07/30 04:52:56;;;;;;;18.15;7.25;;;15.40;99.90;;;;;;5049677;28;20525;-87
2021/07/30 04:55:23;;;;;;;15.90;7.47;;;15.40;99.90;;;;;;5050490;28;20064;-87
2021/07/30 04:57:50;;;;;;;14.13;7.00;;;15.40;99.90;;;;;;5051954;28;20044;-86
2021/07/30 05:00:18;;;;;;;14.65;8.27;;;15.40;99.90;;;;;;5050941;28;20498;-86
2021/07/30 05:02:45;;;;;;;16.20;7.60;;;15.40;99.90;;;;;;5051136;28;20055;-86
2021/07/30 05:05:12;;;;;;;11.65;7.15;;;15.40;99.90;;;;;;5049882;28;20145;-86
2021/07/30 05:07:42;;;;;;;13.20;7.70;;;15.50;99.90;;;;;;5050747;28;20065;-86
2021/07/30 05:10:09;;;;;;;13.15;7.63;;;15.60;99.90;;;;;;5051404;28;20041;-86
2021/07/30 05:12:36;;;;;;;12.85;7.50;;;15.60;99.90;;;;;;5052073;28;20337;-85
2021/07/30 05:15:03;;;;;;;11.80;7.22;;;15.60;99.90;;;;;;5051573;28;20055;-86
2021/07/30 05:17:30;;;;;;;12.35;7.18;;;15.70;99.90;;;;;;5050562;28;20053;-86
2021/07/30 05:19:57;;;;;;;14.57;8.00;;;15.70;99.90;;;;;;5050779;28;20049;-86
2021/07/30 05:22:24;;;;;;;14.18;7.18;;;15.70;99.90;;;;;;5050594;28;20055;-87
2021/07/30 05:24:52;;;;;;;12.52;6.90;;;15.80;99.90;;;;;;5049938;28;20095;-87
2021/07/30 05:27:19;;;;;;;14.10;7.03;;;15.80;99.90;;;;;;5050349;28;20565;-87
2021/07/30 05:29:46;;;;;;;13.45;7.03;;;15.90;99.90;;;;;;5050733;28;20144;-87
2021/07/30 05:32:13;;;;;;;13.98;7.28;;;16.00;99.90;;;;;;5050072;28;20071;-86
2021/07/30 05:34:40;;;;;;;11.52;6.93;;;16.20;99.90;;;;;;5051216;28;20391;-87
2021/07/30 05:37:06;;;;;;;13.00;7.75;;;16.30;99.90;;;;;;5051585;28;20566;-87
2021/07/30 05:39:33;;;;;;;16.90;7.65;;;16.30;99.90;;;;;;5049356;28;20049;-87
2021/07/30 05:42:03;;;;;;;12.65;6.70;;;16.40;99.90;;;;;;5051264;28;20065;-87
2021/07/30 05:44:29;;;;;;;13.38;6.95;;;16.40;99.90;;;;;;5051868;28;20385;-86
2021/07/30 05:46:56;;;;;;;11.50;6.55;;;16.60;99.90;;;;;;5052423;28;20045;-86
2021/07/30 05:49:23;;;;;;;9.73;6.57;;;16.70;99.90;;;;;;5052532;28;20175;-87
2021/07/30 05:51:50;;;;;;;18.95;7.20;;;16.80;99.90;;;;;;5053721;28;20055;-86
2021/07/30 05:54:17;;;;;;;13.60;7.60;;;16.80;99.90;;;;;;5051350;28;20329;-87
2021/07/30 05:56:44;;;;;;;13.07;6.75;;;17.00;99.90;;;;;;5051809;28;20581;-86
2021/07/30 05:59:12;;;;;;;13.48;6.60;;;16.90;99.90;;;;;;5051428;28;20125;-85
2021/07/30 06:01:39;;;;;;;11.45;6.20;;;16.90;99.90;;;;;;5052454;28;20048;-86
2021/07/30 06:04:06;;;;;;;15.48;6.43;;;16.80;99.90;;;;;;5052879;28;20059;-86
2021/07/30 06:06:33;;;;;;;16.27;7.60;;;17.00;99.90;;;;;;5051899;28;20072;-86
2021/07/30 06:09:00;;;;;;;11.38;6.28;;;17.10;99.90;;;;;;5051593;28;20496;-86
2021/07/30 06:11:26;;;;;;;11.50;6.70;;;17.10;99.90;;;;;;5051002;28;20053;-86
2021/07/30 06:13:53;;;;;;;9.60;5.72;;;17.20;99.90;;;;;;5052238;28;20064;-86
2021/07/30 06:16:22;;;;;;;12.18;6.63;;;17.50;99.90;;;;;;5050719;28;20132;-86
2021/07/30 06:18:49;;;;;;;14.43;7.35;;;17.40;99.90;;;;;;5052667;28;20132;-86
2021/07/30 06:21:20;;;;;;;10.07;6.32;;;17.40;99.90;;;;;;5054414;28;20553;-86
2021/07/30 06:23:47;;;;;;;13.43;6.32;;;17.50;99.90;;;;;;5053672;28;20052;-86
2021/07/30 06:26:14;;;;;;;11.55;7.00;;;17.40;99.90;;;;;;5053356;28;20092;-86
2021/07/30 06:28:41;;;;;;;14.98;6.32;;;17.60;99.90;;;;;;5051938;28;20132;-85
2021/07/30 06:31:09;;;;;;;9.30;6.10;;;17.70;99.90;;;;;;5054383;28;20072;-86
2021/07/30 06:33:37;;;;;;;12.00;6.80;;;17.80;99.90;;;;;;5051068;28;20049;-86
2021/07/30 06:36:06;;;;;;;10.65;6.25;;;18.00;99.90;;;;;;5051308;28;20071;-85
2021/07/30 06:38:32;;;;;;;8.35;5.25;;;18.10;99.90;;;;;;5051406;28;20406;-85
2021/07/30 06:40:59;;;;;;;8.52;5.18;;;18.10;99.90;;;;;;5051631;28;20071;-85
2021/07/30 06:43:26;;;;;;;13.15;6.65;;;18.30;99.90;;;;;;5051472;28;20148;-85
2021/07/30 06:46:00;;;;;;;13.25;6.05;;;18.50;99.90;;;;;;5051680;28;20056;-85
2021/07/30 06:48:27;;;;;;;8.07;5.07;;;18.90;99.90;;;;;;5051014;28;20361;-85
2021/07/30 06:50:56;;;;;;;11.45;5.57;;;19.10;99.90;;;;;;5051302;28;20059;-85
2021/07/30 06:53:23;;;;;;;11.50;5.50;;;19.10;99.90;;;;;;5051302;28;20075;-85
2021/07/30 06:55:50;;;;;;;10.07;5.45;;;19.20;99.90;;;;;;5052007;28;20041;-85
2021/07/30 06:58:16;;;;;;;9.55;4.78;;;19.40;99.90;;;;;;5050976;28;20083;-85
2021/07/30 07:00:43;;;;;;;8.40;5.05;;;19.50;99.90;;;;;;5052083;28;20049;-85
2021/07/30 07:03:10;;;;;;;8.50;5.13;;;19.60;99.90;;;;;;5055229;28;20051;-85
2021/07/30 07:05:37;;;;;;;9.43;5.00;;;19.70;99.90;;;;;;5055849;28;20045;-85
2021/07/30 07:08:06;;;;;;;9.13;5.47;;;19.80;99.90;;;;;;5055242;28;20523;-85
2021/07/30 07:10:33;;;;;;;10.23;5.30;;;19.80;99.90;;;;;;5054706;28;20112;-85
2021/07/30 07:13:00;;;;;;;9.52;4.63;;;19.70;99.90;;;;;;5055196;28;20106;-85
2021/07/30 07:15:27;;;;;;;10.05;5.40;;;19.70;99.90;;;;;;5055065;28;20051;-85
2021/07/30 07:17:54;;;;;;;9.32;5.03;;;19.70;99.90;;;;;;5052684;28;20053;-85
2021/07/30 07:20:20;;;;;;;8.45;4.80;;;19.90;99.90;;;;;;5053367;28;20041;-85
2021/07/30 07:22:47;;;;;;;7.97;5.00;;;19.90;99.90;;;;;;5054377;28;20119;-85
2021/07/30 07:25:16;;;;;;;8.02;4.43;;;20.00;99.90;;;;;;5054074;28;20063;-86
2021/07/30 07:27:42;;;;;;;7.05;4.00;;;20.00;99.90;;;;;;5054269;28;20048;-85
2021/07/30 07:30:11;;;;;;;13.60;4.75;;;20.20;99.90;;;;;;5055427;28;20041;-85
2021/07/30 07:32:37;;;;;;;7.43;4.25;;;20.30;99.90;;;;;;5055059;28;20053;-85
2021/07/30 07:35:05;;;;;;;16.23;5.55;;;20.10;99.90;;;;;;5054938;28;20036;-85
2021/07/30 07:37:32;;;;;;;8.15;4.78;;;20.10;99.90;;;;;;5053644;28;20045;-85
2021/07/30 07:39:59;;;;;;;10.52;5.15;;;20.30;99.90;;;;;;5054279;28;20497;-85
2021/07/30 07:42:27;;;;;;;7.07;4.13;;;20.60;99.90;;;;;;5054123;28;20500;-85
2021/07/30 07:44:54;;;;;;;7.28;3.63;;;20.90;99.90;;;;;;5053987;28;20063;-85
2021/07/30 07:47:21;;;;;;;9.80;4.40;;;20.90;99.90;;;;;;5053844;28;20095;-85
2021/07/30 07:49:47;;;;;;;8.40;3.85;;;21.00;99.90;;;;;;5054263;28;20043;-85
2021/07/30 07:52:14;;;;;;;9.60;4.13;;;21.30;99.90;;;;;;5052890;28;20045;-85
2021/07/30 07:54:41;;;;;;;9.38;4.03;;;21.30;99.90;;;;;;5052749;28;20196;-86
2021/07/30 07:57:08;;;;;;;7.18;4.28;;;21.50;99.90;;;;;;5054022;28;20053;-86
2021/07/30 07:59:37;;;;;;;8.30;3.75;;;21.60;99.90;;;;;;5053759;28;20055;-86
2021/07/30 08:02:06;;;;;;;8.95;3.70;;;21.80;99.90;;;;;;5053913;28;20049;-86
2021/07/30 08:04:33;;;;;;;6.05;3.30;;;22.10;99.90;;;;;;5052961;28;20072;-86
2021/07/30 08:07:04;;;;;;;6.32;3.35;;;22.20;99.90;;;;;;5053259;28;20139;-86
2021/07/30 08:09:31;;;;;;;8.00;3.70;;;22.20;99.90;;;;;;5052624;28;20041;-85
2021/07/30 08:11:58;;;;;;;8.60;3.75;;;22.10;99.90;;;;;;5053776;28;20045;-85
2021/07/30 08:14:25;;;;;;;5.78;2.90;;;22.00;99.90;;;;;;5053383;28;20130;-86
2021/07/30 08:16:53;;;;;;;10.27;4.30;;;22.00;99.90;;;;;;5052952;28;20047;-85
2021/07/30 08:19:20;;;;;;;7.53;3.13;;;22.00;99.90;;;;;;5053108;28;20496;-86
2021/07/30 08:21:47;;;;;;;6.43;3.20;;;21.90;99.90;;;;;;5055247;28;20045;-84
2021/07/30 08:24:14;;;;;;;7.65;3.47;;;22.10;99.90;;;;;;5052180;28;20049;-84
2021/07/30 08:26:41;;;;;;;7.38;3.50;;;22.30;99.90;;;;;;5054399;28;20132;-86
2021/07/30 08:29:07;;;;;;;9.05;3.50;;;22.30;99.90;;;;;;5053922;28;20055;-86
2021/07/30 08:31:35;;;;;;;6.90;3.60;;;22.50;99.90;;;;;;5054999;28;20051;-86
2021/07/30 08:34:03;;;;;;;8.65;3.58;;;22.70;99.90;;;;;;5056424;28;20049;-85
2021/07/30 08:36:31;;;;;;;9.20;3.47;;;22.70;99.90;;;;;;5056498;28;20041;-85
2021/07/30 08:38:57;;;;;;;7.03;3.45;;;22.80;99.90;;;;;;5055720;28;20068;-85
2021/07/30 08:41:24;;;;;;;6.15;3.60;;;23.40;99.90;;;;;;5054178;28;20068;-84
2021/07/30 08:43:53;;;;;;;8.95;3.25;;;23.30;99.90;;;;;;5056001;28;20504;-85
2021/07/30 08:46:24;;;;;;;7.22;3.70;;;24.20;99.90;;;;;;5057827;28;20056;-85
2021/07/30 08:48:52;;;;;;;8.02;3.50;;;24.30;99.90;;;;;;5061104;28;20053;-85
2021/07/30 08:51:24;;;;;;;6.72;3.25;;;24.20;99.90;;;;;;5059508;28;20072;-85
2021/07/30 08:53:51;;;;;;;6.10;2.70;;;24.60;99.90;;;;;;5055645;28;20109;-86
2021/07/30 08:56:19;;;;;;;9.05;3.30;;;26.00;99.90;;;;;;5054420;28;20084;-85
2021/07/30 08:58:47;;;;;;;8.68;3.28;;;26.80;99.90;;;;;;5054362;28;20088;-85
2021/07/30 09:01:14;;;;;;;7.15;3.30;;;27.30;99.90;;;;;;5053947;28;20508;-86
2021/07/30 09:03:43;;;;;;;6.45;3.03;;;27.50;99.90;;;;;;5052180;28;20049;-86
2021/07/30 09:06:14;;;;;;;6.65;3.33;;;27.50;99.90;;;;;;5052609;28;20053;-88
2021/07/30 09:08:42;;;;;;;6.93;3.30;;;27.30;99.90;;;;;;5052989;28;20061;-89
2021/07/30 09:11:09;;;;;;;7.38;3.40;;;27.60;99.90;;;;;;5053836;28;20243;-89
2021/07/30 09:13:36;;;;;;;5.53;2.70;;;27.90;99.90;;;;;;5053159;28;20063;-89
2021/07/30 09:16:05;;;;;;;6.53;3.20;;;28.60;99.90;;;;;;5052478;28;20045;-89
2021/07/30 09:18:35;;;;;;;5.70;3.10;;;29.20;99.90;;;;;;5052084;28;20048;-89
2021/07/30 09:21:25;;;;;;;8.10;4.05;;;29.30;99.90;;;;;;5052872;28;20055;-89
2021/07/30 09:23:58;;;;;;;6.07;3.35;;;29.20;99.90;;;;;;5049315;28;20053;-89
2021/07/30 09:26:40;;;;;;;9.18;3.55;;;29.40;99.90;;;;;;5052988;28;20520;-88
2021/07/30 09:29:10;;;;;;;7.45;3.47;;;29.60;99.90;;;;;;5053155;28;20075;-89
2021/07/30 09:31:42;;;;;;;5.20;3.47;;;29.00;99.90;;;;;;5055233;28;20076;-89
2021/07/30 09:34:20;;;;;;;6.53;3.97;;;28.30;99.90;;;;;;5053385;28;20490;-89
2021/07/30 09:36:50;;;;;;;7.72;3.50;;;29.60;99.90;;;;;;5053688;28;20140;-89
2021/07/30 09:39:19;;;;;;;5.65;3.50;;;30.10;99.90;;;;;;5060927;28;20049;-89
2021/07/30 09:42:00;;;;;;;6.40;3.50;;;29.40;99.90;;;;;;5053249;28;20063;-89
2021/07/30 09:44:27;;;;;;;6.65;3.90;;;28.70;99.90;;;;;;5053678;28;20130;-89
2021/07/30 09:47:15;;;;;;;8.57;3.38;;;27.20;99.90;;;;;;5057467;28;20424;-88
2021/07/30 09:49:47;;;;;;;6.50;3.22;;;27.30;99.90;;;;;;5052150;28;20128;-87
2021/07/30 09:52:16;;;;;;;5.28;3.40;;;27.50;99.90;;;;;;5051588;28;20060;-88
2021/07/30 09:54:49;;;;;;;10.48;3.90;;;27.60;99.90;;;;;;5056871;28;20037;-90
2021/07/30 09:57:17;;;;;;;8.50;3.53;;;28.10;99.90;;;;;;5055153;28;20041;-89
2021/07/30 09:59:45;;;;;;;9.43;3.88;;;28.70;99.90;;;;;;5050077;28;20083;-89
2021/07/30 10:02:14;;;;;;;6.95;3.85;;;29.40;99.90;;;;;;5051260;28;20136;-89
2021/07/30 10:04:44;;;;;;;5.68;3.50;;;29.50;99.90;;;;;;5053117;28;20045;-89
2021/07/30 10:07:14;;;;;;;7.28;3.05;;;29.50;99.90;;;;;;5052702;28;20064;-88
2021/07/30 10:09:45;;;;;;;5.38;2.83;;;30.00;99.90;;;;;;5051093;28;20060;-89
2021/07/30 10:12:15;;;;;;;6.72;2.97;;;29.90;99.90;;;;;;5052642;28;20468;-89
2021/07/30 10:14:42;;;;;;;5.30;3.58;;;30.10;99.90;;;;;;5054168;28;20049;-89
2021/07/30 10:17:11;;;;;;;5.40;3.13;;;28.80;99.90;;;;;;5052029;28;20055;-88
2021/07/30 10:19:39;;;;;;;5.20;3.40;;;28.80;99.90;;;;;;5056293;28;20508;-89
2021/07/30 10:22:07;;;;;;;6.32;3.45;;;29.10;99.90;;;;;;5055067;28;20056;-89
2021/07/30 10:24:41;;;;;;;8.25;3.50;;;30.10;99.90;;;;;;5055060;28;20102;-89
2021/07/30 10:27:10;;;;;;;5.90;3.50;;;30.80;99.40;;;;;;5053864;28;20537;-89
2021/07/30 10:30:08;;;;;;;7.82;3.33;;;29.70;98.90;;;;;;5051364;28;20088;-89
2021/07/30 10:32:55;;;;;;;5.72;3.03;;;28.80;99.30;;;;;;5052770;28;20116;-89
2021/07/30 10:35:44;;;;;;;6.68;3.22;;;28.40;99.90;;;;;;5057954;28;20053;-89
2021/07/30 10:38:16;;;;;;;7.20;3.47;;;29.00;99.90;;;;;;5050171;28;20049;-88
2021/07/30 10:40:45;;;;;;;7.97;3.35;;;30.00;99.20;;;;;;5056105;28;20113;-88
2021/07/30 10:43:13;;;;;;;5.30;3.40;;;29.90;99.10;;;;;;5058674;28;20045;-88
2021/07/30 10:45:42;;;;;;;7.60;3.30;;;30.10;99.10;;;;;;5059622;28;20052;-88
2021/07/30 10:48:33;;;;;;;5.95;3.50;;;31.00;97.90;;;;;;5072972;28;20045;-89
2021/07/30 10:51:01;;;;;;;6.80;3.20;;;30.40;97.90;;;;;;5066402;28;20073;-88
2021/07/30 10:53:47;;;;;;;6.10;3.40;;;29.10;98.40;;;;;;5055544;28;20092;-88
2021/07/30 10:56:48;;;;;;;6.20;3.67;;;29.60;99.00;;;;;;5060641;28;20121;-89
2021/07/30 10:59:15;;;;;;;6.97;3.20;;;28.80;99.20;;;;;;5057210;28;20067;-87
2021/07/30 11:01:59;;;;;;;8.85;3.28;;;28.60;99.60;;;;;;5056298;28;20102;-87
2021/07/30 11:04:26;;;;;;;5.03;2.83;;;28.70;99.80;;;;;;5058078;28;20060;-88
2021/07/30 11:06:55;;;;;;;9.13;3.67;;;29.10;98.80;;;;;;5060433;28;20112;-89
2021/07/30 11:09:38;;;;;;;7.18;3.42;;;30.00;97.90;;;;;;5055128;28;20049;-89
2021/07/30 11:12:11;;;;;;;5.97;3.42;;;30.00;97.30;;;;;;5045147;28;20052;-89
2021/07/30 11:14:42;;;;;;;6.38;3.78;;;30.10;97.70;;;;;;5055458;28;20135;-89
2021/07/30 11:17:11;;;;;;;6.15;3.40;;;29.80;96.60;;;;;;5058207;28;20111;-87
2021/07/30 11:19:40;;;;;;;7.32;3.53;;;30.20;96.60;;;;;;5057914;28;20424;-87
2021/07/30 11:22:08;;;;;;;6.32;3.33;;;29.80;97.00;;;;;;5056746;28;20063;-87
2021/07/30 11:24:39;;;;;;;9.15;4.05;;;30.10;96.90;;;;;;5056535;28;20053;-88
2021/07/30 11:27:06;;;;;;;7.10;3.63;;;31.10;96.40;;;;;;5059219;28;20156;-88
2021/07/30 11:29:34;;;;;;;6.53;3.10;;;31.60;95.10;;;;;;5058351;28;20053;-87
2021/07/30 11:32:03;;;;;;;11.02;3.55;;;32.30;93.80;;;;;;5056611;28;20065;-89
2021/07/30 11:34:33;;;;;;;7.95;2.88;;;32.60;93.90;;;;;;5057873;28;20045;-88
2021/07/30 11:37:01;;;;;;;7.35;3.40;;;31.90;93.50;;;;;;5057803;28;20124;-88
2021/07/30 11:39:34;;;;;;;5.90;3.47;;;31.70;94.30;;;;;;5059285;28;20076;-88
2021/07/30 11:42:01;;;;;;;5.13;3.35;;;31.70;93.80;;;;;;5056326;28;20484;-88
2021/07/30 11:44:28;;;;;;;6.07;3.22;;;31.20;93.70;;;;;;5056044;28;20075;-88
2021/07/30 11:46:57;;;;;;;6.10;3.60;;;31.20;94.00;;;;;;5056528;28;20067;-89
2021/07/30 11:49:37;;;;;;;6.90;3.03;;;30.90;93.30;;;;;;5058904;28;20092;-87
2021/07/30 11:52:07;;;;;;;5.20;3.25;;;30.60;93.40;;;;;;5058544;28;20049;-87
2021/07/30 11:54:34;;;;;;;6.65;3.30;;;30.20;93.50;;;;;;5055929;28;20049;-89
2021/07/30 11:57:01;;;;;;;5.95;3.63;;;29.80;93.50;;;;;;5055680;28;20131;-89
2021/07/30 11:59:43;;;;;;;6.30;3.25;;;30.20;93.90;;;;;;5057261;28;20462;-88
2021/07/30 12:02:10;;;;;;;8.32;3.75;;;30.80;93.30;;;;;;5063647;28;20042;-89
2021/07/30 12:04:49;;;;;;;6.57;3.70;;;30.50;93.00;;;;;;5056396;28;20053;-88
2021/07/30 12:07:18;;;;;;;6.15;3.53;;;31.00;93.00;;;;;;5055475;28;20075;-88
2021/07/30 12:09:47;;;;;;;9.63;3.42;;;31.00;92.80;;;;;;5054693;28;20140;-88
2021/07/30 12:12:15;;;;;;;5.90;3.70;;;31.30;92.00;;;;;;5060043;28;20123;-90
2021/07/30 12:14:47;;;;;;;6.05;3.80;;;31.20;92.90;;;;;;5058530;28;20540;-89
2021/07/30 12:17:14;;;;;;;10.77;4.00;;;31.60;91.70;;;;;;5057201;28;20056;-88
2021/07/30 12:19:43;;;;;;;8.57;3.60;;;31.30;91.90;;;;;;5059954;28;20060;-89
2021/07/30 12:22:10;;;;;;;6.72;3.22;;;31.60;91.50;;;;;;5056723;28;20045;-89
2021/07/30 12:24:49;;;;;;;8.23;4.28;;;32.10;91.80;;;;;;5050735;28;20080;-89
2021/07/30 12:27:20;;;;;;;5.68;3.33;;;32.30;91.00;;;;;;5055090;28;20460;-89
2021/07/30 12:29:49;;;;;;;7.65;3.90;;;32.00;90.20;;;;;;5056752;28;20052;-89
2021/07/30 12:32:18;;;;;;;5.60;3.50;;;32.10;90.00;;;;;;5058838;28;20109;-89
2021/07/30 12:35:00;;;;;;;6.18;3.38;;;32.50;91.10;;;;;;5056826;28;20045;-88
2021/07/30 12:37:29;;;;;;;6.93;4.03;;;32.60;90.20;;;;;;5056580;28;20055;-89
2021/07/30 12:39:57;;;;;;;9.85;4.10;;;32.90;88.30;;;;;;5056049;28;20132;-88
2021/07/30 12:42:25;;;;;;;6.28;3.80;;;32.20;85.80;;;;;;5056708;28;20045;-88
2021/07/30 12:45:07;;;;;;;5.50;3.47;;;31.80;87.70;;;;;;5058894;28;20123;-88
2021/07/30 12:47:35;;;;;;;8.05;3.78;;;31.50;86.70;;;;;;5051857;28;20110;-87
2021/07/30 12:50:23;;;;;;;6.43;3.28;;;31.70;88.40;;;;;;5055467;28;20116;-88
2021/07/30 12:53:04;;;;;;;6.68;3.20;;;31.50;87.50;;;;;;5056588;28;20069;-87